createdAt,value
2023-02-11T00:01:29.380Z,100405.72
2023-02-11T00:03:58.600Z,100404.03
2023-02-11T00:06:28.751Z,100396.09
2023-02-11T00:08:57.236Z,100403.03
2023-02-11T00:11:30.239Z,100392.63
2023-02-11T00:14:04.632Z,100395.25
2023-02-11T00:16:32.620Z,100383.88
2023-02-11T00:19:01.602Z,100389.13
2023-02-11T00:21:30.353Z,100374.38
2023-02-11T00:23:59.905Z,100369.13
2023-02-11T00:26:34.515Z,100366.59
2023-02-11T00:29:02.467Z,100376.09
2023-02-11T00:31:29.853Z,100365.72
2023-02-11T00:33:57.041Z,100367.41
2023-02-11T00:36:27.629Z,100367.44
2023-02-11T00:38:57.307Z,100359.75
2023-02-11T00:41:24.983Z,100361.50
2023-02-11T00:43:52.950Z,100359.84
2023-02-11T00:46:20.870Z,100349.47
2023-02-11T00:48:48.257Z,100358.22
2023-02-11T00:51:15.737Z,100353.03
2023-02-11T00:53:42.723Z,100347.00
2023-02-11T00:56:11.050Z,100345.19
2023-02-11T00:58:38.305Z,100339.06
2023-02-11T01:01:05.936Z,100334.56
2023-02-11T01:03:33.245Z,100321.66
2023-02-11T01:06:00.742Z,100317.22
2023-02-11T01:08:28.230Z,100312.06
2023-02-11T01:11:01.843Z,100305.97
2023-02-11T01:13:30.457Z,100312.09
2023-02-11T01:15:58.461Z,100307.81
2023-02-11T01:18:26.421Z,100304.25
2023-02-11T01:20:54.460Z,100305.13
2023-02-11T01:23:21.747Z,100307.66
2023-02-11T01:25:50.659Z,100304.22
2023-02-11T01:28:22.271Z,100311.22
2023-02-11T01:30:51.365Z,100297.38
2023-02-11T01:33:18.583Z,100300.00
2023-02-11T01:35:46.457Z,100292.22
2023-02-11T01:38:26.304Z,100300.06
2023-02-11T01:40:59.996Z,100292.22
2023-02-11T01:43:31.362Z,100296.47
2023-02-11T01:46:36.894Z,100293.06
2023-02-11T01:49:16.534Z,100289.56
2023-02-11T01:51:52.005Z,100266.03
2023-02-11T01:54:45.179Z,100275.53
2023-02-11T01:57:24.885Z,100268.38
2023-02-11T02:00:27.951Z,100265.75
2023-02-11T02:03:20.241Z,100267.38
2023-02-11T02:06:08.089Z,100264.97
2023-02-11T02:08:44.255Z,100255.53
2023-02-11T02:11:11.931Z,100260.75
2023-02-11T02:13:39.328Z,100254.75
2023-02-11T02:16:14.499Z,100249.56
2023-02-11T02:19:28.130Z,100244.16
2023-02-11T02:22:51.180Z,100236.19
2023-02-11T02:25:46.435Z,100235.31
2023-02-11T02:28:35.903Z,100234.50
2023-02-11T02:31:09.300Z,100224.19
2023-02-11T02:34:02.735Z,100211.13
2023-02-11T02:37:15.125Z,100216.31
2023-02-11T02:39:46.283Z,100212.16
2023-02-11T02:42:15.598Z,100223.50
2023-02-11T02:44:53.236Z,100221.00
2023-02-11T02:47:20.450Z,100212.41
2023-02-11T02:49:47.571Z,100221.22
2023-02-11T02:52:42.945Z,100211.75
2023-02-11T02:55:44.347Z,100223.13
2023-02-11T02:58:37.714Z,100223.25
2023-02-11T03:01:22.494Z,100212.91
2023-02-11T03:04:06.653Z,100214.56
2023-02-11T03:06:57.745Z,100215.50
2023-02-11T03:09:33.837Z,100204.31
2023-02-11T03:12:04.328Z,100198.22
2023-02-11T03:14:35.516Z,100199.88
2023-02-11T03:17:08.724Z,100189.59
2023-02-11T03:19:43.801Z,100192.34
2023-02-11T03:22:22.297Z,100189.69
2023-02-11T03:24:49.832Z,100192.31
2023-02-11T03:27:53.103Z,100187.09
2023-02-11T03:30:41.864Z,100184.53
2023-02-11T03:33:29.287Z,100183.50
2023-02-11T03:36:15.925Z,100186.09
2023-02-11T03:38:54.011Z,100180.03
2023-02-11T03:41:25.089Z,100183.59
2023-02-11T03:43:59.709Z,100173.28
2023-02-11T03:46:41.248Z,100170.66
2023-02-11T03:49:13.696Z,100185.50
2023-02-11T03:51:41.835Z,100172.56
2023-02-11T03:54:19.578Z,100163.81
2023-02-11T03:56:57.407Z,100161.22
2023-02-11T03:59:24.496Z,100169.06
2023-02-11T04:01:52.754Z,100166.53
2023-02-11T04:04:20.576Z,100155.28
2023-02-11T04:06:47.884Z,100157.03
2023-02-11T04:09:15.288Z,100150.94
2023-02-11T04:11:42.531Z,100146.63
2023-02-11T04:14:09.585Z,100134.50
2023-02-11T04:16:36.884Z,100120.44
2023-02-11T04:19:04.122Z,100102.22
2023-02-11T04:21:31.771Z,100101.34
2023-02-11T04:23:58.793Z,100104.06
2023-02-11T04:26:26.019Z,100099.81
2023-02-11T04:28:52.942Z,100099.88
2023-02-11T04:31:20.346Z,100103.34
2023-02-11T04:33:47.383Z,100100.84
2023-02-11T04:36:14.773Z,100108.69
2023-02-11T04:38:41.744Z,100113.84
2023-02-11T04:41:08.905Z,100116.47
2023-02-11T04:43:35.831Z,100115.59
2023-02-11T04:46:03.279Z,100090.53
2023-02-11T04:48:30.292Z,100089.66
2023-02-11T04:50:57.538Z,100086.22
2023-02-11T04:53:24.543Z,100082.75
2023-02-11T04:55:52.406Z,100072.41
2023-02-11T04:58:20.375Z,100084.44
2023-02-11T05:00:48.330Z,100073.97
2023-02-11T05:03:16.255Z,100065.41
2023-02-11T05:05:44.025Z,100083.72
2023-02-11T05:08:11.616Z,100076.81
2023-02-11T05:10:39.375Z,100070.78
2023-02-11T05:13:06.262Z,100084.69
2023-02-11T05:15:33.553Z,100078.66
2023-02-11T05:18:00.499Z,100073.41
2023-02-11T05:20:27.708Z,100069.09
2023-02-11T05:22:55.036Z,100056.84
2023-02-11T05:25:22.370Z,100055.16
2023-02-11T05:27:49.323Z,100057.78
2023-02-11T05:30:16.556Z,100064.72
2023-02-11T05:32:43.412Z,100073.44
2023-02-11T05:35:10.758Z,100079.53
2023-02-11T05:37:37.819Z,100069.13
2023-02-11T05:40:06.575Z,100069.13
2023-02-11T05:42:33.550Z,100070.06
2023-02-11T05:45:01.028Z,100090.06
2023-02-11T05:47:28.192Z,100076.19
2023-02-11T05:49:55.485Z,100072.75
2023-02-11T05:52:23.620Z,100071.03
2023-02-11T05:54:51.272Z,100073.56
2023-02-11T05:57:18.797Z,100072.75
2023-02-11T05:59:45.937Z,100069.28
2023-02-11T06:02:13.387Z,100064.97
2023-02-11T06:04:41.475Z,100071.09
2023-02-11T06:07:08.410Z,100065.00
2023-02-11T06:09:38.894Z,100072.78
2023-02-11T06:12:06.103Z,100071.94
2023-02-11T06:14:34.481Z,100072.03
2023-02-11T06:17:01.677Z,100064.97
2023-02-11T06:19:28.993Z,100064.13
2023-02-11T06:21:56.941Z,100062.47
2023-02-11T06:24:51.090Z,100063.38
2023-02-11T06:27:11.555Z,100065.16
2023-02-11T06:29:38.833Z,100069.50
2023-02-11T06:32:05.995Z,100055.63
2023-02-11T06:34:33.212Z,100065.16
2023-02-11T06:37:00.244Z,100067.78
2023-02-11T06:39:27.423Z,100067.75
2023-02-11T06:41:54.475Z,100073.88
2023-02-11T06:44:21.700Z,100072.16
2023-02-11T06:46:48.766Z,100071.25
2023-02-11T06:49:15.992Z,100072.16
2023-02-11T06:51:43.167Z,100069.56
2023-02-11T06:54:12.967Z,100065.22
2023-02-11T06:56:41.483Z,100067.88
2023-02-11T06:59:09.103Z,100073.06
2023-02-11T07:01:36.178Z,100074.78
2023-02-11T07:04:03.798Z,100076.59
2023-02-11T07:06:30.841Z,100079.19
2023-02-11T07:08:58.035Z,100079.22
2023-02-11T07:11:29.720Z,100081.88
2023-02-11T07:14:03.388Z,100079.31
2023-02-11T07:16:31.684Z,100077.59
2023-02-11T07:18:59.230Z,100087.16
2023-02-11T07:21:26.315Z,100088.91
2023-02-11T07:23:53.861Z,100094.22
2023-02-11T07:26:23.845Z,100089.88
2023-02-11T07:28:51.994Z,100082.06
2023-02-11T07:31:29.698Z,100090.75
2023-02-11T07:34:00.548Z,100088.16
2023-02-11T07:36:32.241Z,100081.22
2023-02-11T07:39:00.407Z,100091.69
2023-02-11T07:41:27.946Z,100091.66
2023-02-11T07:43:56.080Z,100097.78
2023-02-11T07:46:27.045Z,100096.06
2023-02-11T07:48:55.718Z,100099.59
2023-02-11T07:51:31.719Z,100095.16
2023-02-11T07:54:00.784Z,100099.56
2023-02-11T07:56:29.412Z,100094.31
2023-02-11T07:59:02.390Z,100100.50
2023-02-11T08:01:30.881Z,100103.09
2023-02-11T08:04:01.060Z,100098.75
2023-02-11T08:06:32.645Z,100103.06
2023-02-11T08:09:07.926Z,100095.28
2023-02-11T08:11:35.050Z,100082.22
2023-02-11T08:14:03.123Z,100079.63
2023-02-11T08:16:40.267Z,100077.09
2023-02-11T08:19:16.197Z,100080.56
2023-02-11T08:21:44.575Z,100084.03
2023-02-11T08:24:12.243Z,100091.81
2023-02-11T08:26:41.168Z,100085.78
2023-02-11T08:29:14.788Z,100088.34
2023-02-11T08:31:45.946Z,100084.00
2023-02-11T08:34:18.283Z,100087.50
2023-02-11T08:36:47.182Z,100086.66
2023-02-11T08:39:22.860Z,100086.66
2023-02-11T08:41:53.712Z,100087.53
2023-02-11T08:44:22.036Z,100076.28
2023-02-11T08:46:50.980Z,100086.81
2023-02-11T08:49:18.930Z,100089.34
2023-02-11T08:51:47.471Z,100090.28
2023-02-11T08:54:15.189Z,100088.56
2023-02-11T08:56:42.702Z,100098.13
2023-02-11T08:59:15.117Z,100097.28
2023-02-11T09:01:42.194Z,100091.22
2023-02-11T09:04:10.902Z,100093.84
2023-02-11T09:06:38.141Z,100089.50
2023-02-11T09:09:05.668Z,100071.19
2023-02-11T09:11:42.030Z,100076.41
2023-02-11T09:14:19.397Z,100079.06
2023-02-11T09:16:47.028Z,100078.19
2023-02-11T09:19:14.373Z,100077.31
2023-02-11T09:21:41.480Z,100088.66
2023-02-11T09:24:08.944Z,100087.78
2023-02-11T09:26:37.760Z,100089.53
2023-02-11T09:29:06.009Z,100090.38
2023-02-11T09:31:34.885Z,100081.66
2023-02-11T09:34:06.512Z,100088.66
2023-02-11T09:36:38.801Z,100088.66
2023-02-11T09:39:12.015Z,100092.13
2023-02-11T09:42:01.914Z,100090.38
2023-02-11T09:44:34.867Z,100089.50
2023-02-11T09:47:24.948Z,100098.22
2023-02-11T09:50:36.415Z,100098.22
2023-02-11T09:53:21.162Z,100087.75
2023-02-11T09:55:57.624Z,100093.00
2023-02-11T09:58:31.768Z,100088.66
2023-02-11T10:01:08.949Z,100094.75
2023-02-11T10:04:02.796Z,100100.84
2023-02-11T10:06:38.648Z,100112.19
2023-02-11T10:09:44.047Z,100112.19
2023-02-11T10:12:42.359Z,100120.94
2023-02-11T10:15:18.424Z,100114.84
2023-02-11T10:18:19.797Z,100106.97
2023-02-11T10:21:52.791Z,100094.72
2023-02-11T10:24:21.754Z,100081.63
2023-02-11T10:26:49.320Z,100067.69
2023-02-11T10:29:48.267Z,100062.38
2023-02-11T10:32:46.943Z,100059.78
2023-02-11T10:35:22.449Z,100068.53
2023-02-11T10:37:50.806Z,100054.53
2023-02-11T10:40:31.703Z,100057.16
2023-02-11T10:43:07.919Z,100046.63
2023-02-11T10:45:42.078Z,100050.09
2023-02-11T10:48:51.707Z,100040.50
2023-02-11T10:51:28.993Z,100026.50
2023-02-11T10:54:05.527Z,100036.97
2023-02-11T10:56:40.201Z,100031.75
2023-02-11T10:59:33.196Z,100037.97
2023-02-11T11:02:07.980Z,100037.97
2023-02-11T11:04:45.070Z,100043.19
2023-02-11T11:07:23.053Z,100033.63
2023-02-11T11:10:24.563Z,100033.63
2023-02-11T11:12:51.889Z,100040.63
2023-02-11T11:15:25.016Z,100026.63
2023-02-11T11:18:23.022Z,100030.94
2023-02-11T11:21:07.862Z,100034.41
2023-02-11T11:23:37.863Z,100042.22
2023-02-11T11:26:13.127Z,100036.16
2023-02-11T11:29:16.864Z,100045.84
2023-02-11T11:32:05.434Z,100058.00
2023-02-11T11:34:41.882Z,100051.91
2023-02-11T11:37:24.823Z,100053.63
2023-02-11T11:40:16.186Z,100049.25
2023-02-11T11:42:44.113Z,100049.22
2023-02-11T11:45:20.370Z,100036.19
2023-02-11T11:48:23.293Z,100041.41
2023-02-11T11:50:58.196Z,100043.06
2023-02-11T11:54:00.532Z,100026.50
2023-02-11T11:56:34.653Z,100022.97
2023-02-11T11:59:13.180Z,100023.91
2023-02-11T12:02:26.566Z,100025.63
2023-02-11T12:05:13.922Z,100016.00
2023-02-11T12:07:55.162Z,100032.59
2023-02-11T12:11:06.795Z,100023.81
2023-02-11T12:14:04.311Z,100026.41
2023-02-11T12:16:37.284Z,100009.78
2023-02-11T12:20:13.125Z,99995.69
2023-02-11T12:22:45.438Z,99998.31
2023-02-11T12:25:26.700Z,100000.06
2023-02-11T12:28:20.391Z,100005.34
2023-02-11T12:31:27.839Z,99998.50
2023-02-11T12:34:25.791Z,99994.81
2023-02-11T12:37:22.398Z,100010.53
2023-02-11T12:40:25.612Z,100007.03
2023-02-11T12:43:20.653Z,100008.75
2023-02-11T12:45:56.763Z,99998.22
2023-02-11T12:49:03.597Z,100007.84
2023-02-11T12:51:49.395Z,100002.59
2023-02-11T12:54:34.482Z,99996.53
2023-02-11T12:57:13.275Z,100003.56
2023-02-11T12:59:50.132Z,99998.38
2023-02-11T13:02:43.786Z,99992.25
2023-02-11T13:05:40.544Z,99996.59
2023-02-11T13:08:31.666Z,99987.91
2023-02-11T13:11:15.151Z,99979.13
2023-02-11T13:13:45.517Z,99983.50
2023-02-11T13:16:32.950Z,99982.59
2023-02-11T13:19:18.236Z,99984.28
2023-02-11T13:22:09.073Z,99988.56
2023-02-11T13:24:56.688Z,99980.75
2023-02-11T13:27:33.480Z,99977.09
2023-02-11T13:30:46.913Z,99988.53
2023-02-11T13:33:17.078Z,99984.22
2023-02-11T13:36:09.671Z,100002.50
2023-02-11T13:38:38.790Z,99995.47
2023-02-11T13:41:18.564Z,99993.75
2023-02-11T13:44:04.185Z,99982.41
2023-02-11T13:46:54.237Z,99983.41
2023-02-11T13:49:35.745Z,99987.59
2023-02-11T13:52:16.425Z,99997.22
2023-02-11T13:54:53.908Z,99999.81
2023-02-11T13:57:20.945Z,100002.50
2023-02-11T13:59:56.901Z,99996.41
2023-02-11T14:02:55.615Z,99996.41
2023-02-11T14:05:49.390Z,99992.06
2023-02-11T14:08:43.371Z,99986.72
2023-02-11T14:11:32.509Z,99991.13
2023-02-11T14:14:21.807Z,99989.31
2023-02-11T14:17:07.239Z,99981.44
2023-02-11T14:19:40.474Z,99987.53
2023-02-11T14:22:11.928Z,99982.31
2023-02-11T14:24:38.819Z,99972.66
2023-02-11T14:27:21.512Z,99985.78
2023-02-11T14:30:18.993Z,99994.56
2023-02-11T14:32:56.171Z,99985.78
2023-02-11T14:35:52.696Z,99990.22
2023-02-11T14:38:37.977Z,99982.31
2023-02-11T14:41:18.530Z,99980.56
2023-02-11T14:43:56.166Z,99984.94
2023-02-11T14:46:25.668Z,99987.69
2023-02-11T14:48:58.492Z,99983.38
2023-02-11T14:51:36.201Z,99984.13
2023-02-11T14:54:18.996Z,99982.34
2023-02-11T14:56:46.972Z,99995.47
2023-02-11T14:59:21.840Z,99980.75
2023-02-11T15:01:56.689Z,99976.47
2023-02-11T15:04:36.168Z,99979.13
2023-02-11T15:07:08.634Z,99986.94
2023-02-11T15:10:01.260Z,99980.81
2023-02-11T15:12:29.041Z,99981.63
2023-02-11T15:15:00.963Z,99974.66
2023-02-11T15:17:32.203Z,99986.88
2023-02-11T15:20:02.596Z,99984.25
2023-02-11T15:22:36.627Z,99985.19
2023-02-11T15:25:10.950Z,99982.53
2023-02-11T15:27:42.856Z,99976.41
2023-02-11T15:30:34.304Z,99973.84
2023-02-11T15:33:06.090Z,99984.34
2023-02-11T15:35:38.591Z,99986.97
2023-02-11T15:38:06.221Z,99981.69
2023-02-11T15:40:37.479Z,99979.03
2023-02-11T15:43:07.981Z,99978.16
2023-02-11T15:45:37.864Z,99982.47
2023-02-11T15:48:33.468Z,99976.47
2023-02-11T15:51:05.899Z,99976.41
2023-02-11T15:53:43.433Z,99984.25
2023-02-11T15:56:25.112Z,99994.84
2023-02-11T15:58:57.410Z,99996.53
2023-02-11T16:01:43.671Z,99999.13
2023-02-11T16:04:23.693Z,99982.53
2023-02-11T16:06:53.002Z,99994.75
2023-02-11T16:09:20.038Z,100001.75
2023-02-11T16:11:49.789Z,100018.38
2023-02-11T16:14:32.406Z,100027.06
2023-02-11T16:17:06.085Z,100010.50
2023-02-11T16:19:35.717Z,100009.63
2023-02-11T16:22:11.578Z,100019.19
2023-02-11T16:24:40.171Z,100017.50
2023-02-11T16:27:39.848Z,100015.72
2023-02-11T16:30:23.565Z,100024.50
2023-02-11T16:32:53.308Z,100024.44
2023-02-11T16:35:20.930Z,100018.34
2023-02-11T16:37:48.275Z,100025.34
2023-02-11T16:40:15.638Z,100037.56
2023-02-11T16:42:43.019Z,100040.22
2023-02-11T16:45:10.348Z,100041.94
2023-02-11T16:47:41.024Z,100048.94
2023-02-11T16:50:21.594Z,100048.06
2023-02-11T16:52:49.855Z,100052.44
2023-02-11T16:55:16.968Z,100050.75
2023-02-11T16:57:44.221Z,100048.13
2023-02-11T17:00:15.866Z,100049.81
2023-02-11T17:02:44.066Z,100050.66
2023-02-11T17:05:22.890Z,100054.13
2023-02-11T17:07:50.419Z,100058.50
2023-02-11T17:10:23.535Z,100049.72
2023-02-11T17:12:53.468Z,100058.50
2023-02-11T17:15:20.529Z,100055.00
2023-02-11T17:17:48.206Z,100047.09
2023-02-11T17:20:16.122Z,100051.47
2023-02-11T17:22:43.417Z,100051.50
2023-02-11T17:25:10.643Z,100056.72
2023-02-11T17:27:38.027Z,100061.16
2023-02-11T17:30:06.249Z,100068.13
2023-02-11T17:32:33.765Z,100074.25
2023-02-11T17:35:00.796Z,100070.78
2023-02-11T17:37:28.770Z,100075.13
2023-02-11T17:39:55.707Z,100074.22
2023-02-11T17:42:23.022Z,100085.59
2023-02-11T17:44:49.865Z,100083.03
2023-02-11T17:47:17.259Z,100084.75
2023-02-11T17:49:44.322Z,100085.59
2023-02-11T17:52:12.030Z,100084.72
2023-02-11T17:54:39.075Z,100074.25
2023-02-11T17:57:06.320Z,100082.09
2023-02-11T17:59:35.555Z,100096.06
2023-02-11T18:02:04.382Z,100092.59
2023-02-11T18:04:32.333Z,100092.59
2023-02-11T18:06:59.626Z,100096.09
2023-02-11T18:09:27.132Z,100098.69
2023-02-11T18:11:55.095Z,100098.72
2023-02-11T18:14:22.752Z,100090.00
2023-02-11T18:16:53.367Z,100096.94
2023-02-11T18:19:20.971Z,100094.31
2023-02-11T18:21:50.421Z,100096.06
2023-02-11T18:24:18.684Z,100103.06
2023-02-11T18:26:46.091Z,100099.56
2023-02-11T18:29:13.135Z,100093.44
2023-02-11T18:31:40.462Z,100106.53
2023-02-11T18:34:10.604Z,100104.78
2023-02-11T18:36:38.397Z,100110.03
2023-02-11T18:39:06.331Z,100114.41
2023-02-11T18:41:34.232Z,100120.53
2023-02-11T18:44:03.165Z,100118.81
2023-02-11T18:46:32.518Z,100119.69
2023-02-11T18:48:59.813Z,100133.72
2023-02-11T18:51:27.212Z,100137.22
2023-02-11T18:53:54.730Z,100137.19
2023-02-11T18:56:25.118Z,100141.56
2023-02-11T18:58:52.196Z,100140.66
2023-02-11T19:01:27.518Z,100145.03
2023-02-11T19:03:57.545Z,100151.16
2023-02-11T19:06:29.650Z,100148.53
2023-02-11T19:09:02.363Z,100148.53
2023-02-11T19:11:47.359Z,100150.25
2023-02-11T19:14:21.771Z,100149.38
2023-02-11T19:16:51.370Z,100152.00
2023-02-11T19:19:19.761Z,100152.91
2023-02-11T19:21:47.741Z,100151.16
2023-02-11T19:24:19.076Z,100159.88
2023-02-11T19:26:49.387Z,100160.72
2023-02-11T19:29:17.792Z,100166.81
2023-02-11T19:31:46.137Z,100166.81
2023-02-11T19:34:16.178Z,100169.50
2023-02-11T19:36:43.835Z,100165.09
2023-02-11T19:39:10.929Z,100175.59
2023-02-11T19:41:39.403Z,100186.97
2023-02-11T19:44:08.273Z,100179.09
2023-02-11T19:46:40.864Z,100185.25
2023-02-11T19:49:08.619Z,100185.25
2023-02-11T19:51:39.454Z,100185.25
2023-02-11T19:54:07.817Z,100182.63
2023-02-11T19:56:35.418Z,100175.63
2023-02-11T19:59:04.177Z,100180.00
2023-02-11T20:01:31.706Z,100173.91
2023-02-11T20:03:58.775Z,100173.91
2023-02-11T20:06:30.529Z,100181.78
2023-02-11T20:09:01.618Z,100185.25
2023-02-11T20:11:31.732Z,100181.72
2023-02-11T20:14:00.197Z,100186.13
2023-02-11T20:16:46.929Z,100192.22
2023-02-11T20:19:21.717Z,100190.50
2023-02-11T20:21:53.424Z,100182.63
2023-02-11T20:24:21.017Z,100185.28
2023-02-11T20:26:49.805Z,100180.94
2023-02-11T20:29:18.404Z,100194.03
2023-02-11T20:31:46.276Z,100194.91
2023-02-11T20:34:13.646Z,100191.44
2023-02-11T20:36:41.699Z,100188.81
2023-02-11T20:39:11.299Z,100179.19
2023-02-11T20:41:41.464Z,100187.03
2023-02-11T20:44:10.613Z,100187.94
2023-02-11T20:46:41.428Z,100189.72
2023-02-11T20:49:11.884Z,100184.44
2023-02-11T20:51:40.031Z,100191.44
2023-02-11T20:54:08.041Z,100194.97
2023-02-11T20:56:37.132Z,100193.19
2023-02-11T20:59:06.018Z,100194.06
2023-02-11T21:01:37.598Z,100191.47
2023-02-11T21:04:18.448Z,100191.50
2023-02-11T21:06:50.796Z,100199.34
2023-02-11T21:09:22.535Z,100194.97
2023-02-11T21:11:52.287Z,100203.75
2023-02-11T21:14:22.306Z,100206.31
2023-02-11T21:16:49.973Z,100208.09
2023-02-11T21:19:17.872Z,100207.22
2023-02-11T21:21:45.718Z,100207.19
2023-02-11T21:24:13.913Z,100208.94
2023-02-11T21:26:41.653Z,100212.41
2023-02-11T21:29:09.181Z,100213.31
2023-02-11T21:31:37.499Z,100225.53
2023-02-11T21:34:06.220Z,100221.19
2023-02-11T21:36:33.877Z,100225.56
2023-02-11T21:39:01.921Z,100226.44
2023-02-11T21:41:29.652Z,100230.81
2023-02-11T21:43:57.079Z,100227.34
2023-02-11T21:46:24.962Z,100233.44
2023-02-11T21:48:52.738Z,100236.06
2023-02-11T21:51:26.021Z,100242.16
2023-02-11T21:54:01.482Z,100243.03
2023-02-11T21:56:31.645Z,100237.78
2023-02-11T21:59:00.187Z,100236.88
2023-02-11T22:01:35.327Z,100240.41
2023-02-11T22:04:02.655Z,100248.25
2023-02-11T22:06:33.943Z,100253.50
2023-02-11T22:09:10.822Z,100257.00
2023-02-11T22:11:38.274Z,100267.47
2023-02-11T22:14:05.563Z,100266.59
2023-02-11T22:16:33.055Z,100266.59
2023-02-11T22:19:02.489Z,100270.97
2023-02-11T22:21:30.816Z,100272.72
2023-02-11T22:23:57.906Z,100275.34
2023-02-11T22:26:27.878Z,100269.22
2023-02-11T22:28:55.772Z,100276.22
2023-02-11T22:31:28.543Z,100277.13
2023-02-11T22:33:57.160Z,100274.50
2023-02-11T22:36:29.543Z,100277.13
2023-02-11T22:39:00.648Z,100276.22
2023-02-11T22:41:28.324Z,100281.47
2023-02-11T22:43:55.397Z,100285.84
2023-02-11T22:46:22.681Z,100282.34
2023-02-11T22:48:51.017Z,100292.84
2023-02-11T22:51:26.730Z,100297.19
2023-02-11T22:54:00.948Z,100297.19
2023-02-11T22:56:30.268Z,100295.47
2023-02-11T22:58:59.810Z,100301.59
2023-02-11T23:01:29.467Z,100299.81
2023-02-11T23:03:59.707Z,100307.69
2023-02-11T23:06:26.968Z,100311.22
2023-02-11T23:08:54.513Z,100316.44
2023-02-11T23:11:26.431Z,100314.66
2023-02-11T23:13:54.443Z,100316.41
2023-02-11T23:16:27.710Z,100322.56
2023-02-11T23:18:55.348Z,100313.81
2023-02-11T23:21:27.180Z,100317.31
2023-02-11T23:24:00.629Z,100314.69
2023-02-11T23:26:28.761Z,100311.22
2023-02-11T23:28:56.250Z,100325.19
2023-02-11T23:31:35.387Z,100319.94
2023-02-11T23:34:02.636Z,100312.97
2023-02-11T23:36:30.267Z,100312.09
2023-02-11T23:38:57.500Z,100308.59
2023-02-11T23:41:25.217Z,100305.97
2023-02-11T23:43:55.734Z,100306.84
2023-02-11T23:46:25.565Z,100310.31
2023-02-11T23:48:53.780Z,100319.09
2023-02-11T23:51:21.847Z,100318.19
2023-02-11T23:53:49.781Z,100317.28
2023-02-11T23:56:21.383Z,100312.03
2023-02-11T23:58:50.592Z,100320.81
